sensor_id;sensor_type;location;lat;lon;timestamp;P1;durP1;ratioP1;P2;durP2;ratioP2
61642;SDS011;47551;52.506;4.678;2023-10-13T00:00:19;12.48;;;6.50;;
61642;SDS011;47551;52.506;4.678;2023-10-13T00:00:56;12.63;;;6.43;;
61642;SDS011;47551;52.506;4.678;2023-10-13T00:01:18;11.48;;;6.65;;
61642;SDS011;47551;52.506;4.678;2023-10-13T00:01:38;13.10;;;7.00;;
61642;SDS011;47551;52.506;4.678;2023-10-13T00:01:59;11.77;;;7.10;;
61642;SDS011;47551;52.506;4.678;2023-10-13T00:02:19;11.00;;;7.05;;
61642;SDS011;47551;52.506;4.678;2023-10-13T00:02:42;11.43;;;6.78;;
61642;SDS011;47551;52.506;4.678;2023-10-13T00:03:03;10.80;;;6.85;;
61642;SDS011;47551;52.506;4.678;2023-10-13T00:03:24;11.07;;;6.70;;
61642;SDS011;47551;52.506;4.678;2023-10-13T00:03:45;13.45;;;7.13;;
61642;SDS011;47551;52.506;4.678;2023-10-13T00:04:05;11.77;;;6.97;;
61642;SDS011;47551;52.506;4.678;2023-10-13T00:04:26;11.10;;;6.70;;
61642;SDS011;47551;52.506;4.678;2023-10-13T00:04:49;13.50;;;7.33;;
61642;SDS011;47551;52.506;4.678;2023-10-13T00:05:10;12.45;;;6.75;;
61642;SDS011;47551;52.506;4.678;2023-10-13T00:05:30;11.03;;;6.80;;
61642;SDS011;47551;52.506;4.678;2023-10-13T00:05:51;10.68;;;6.80;;
61642;SDS011;47551;52.506;4.678;2023-10-13T00:06:12;11.25;;;6.93;;
61642;SDS011;47551;52.506;4.678;2023-10-13T00:06:33;11.17;;;6.97;;
61642;SDS011;47551;52.506;4.678;2023-10-13T00:06:53;12.17;;;6.90;;
61642;SDS011;47551;52.506;4.678;2023-10-13T00:07:14;11.32;;;6.70;;
61642;SDS011;47551;52.506;4.678;2023-10-13T00:07:34;10.90;;;6.60;;
61642;SDS011;47551;52.506;4.678;2023-10-13T00:07:54;10.60;;;6.72;;
61642;SDS011;47551;52.506;4.678;2023-10-13T00:08:18;9.13;;;5.93;;
61642;SDS011;47551;52.506;4.678;2023-10-13T00:08:50;9.45;;;6.00;;
61642;SDS011;47551;52.506;4.678;2023-10-13T00:09:10;9.53;;;5.73;;
61642;SDS011;47551;52.506;4.678;2023-10-13T00:09:34;12.70;;;7.00;;
61642;SDS011;47551;52.506;4.678;2023-10-13T00:09:57;12.55;;;6.60;;
61642;SDS011;47551;52.506;4.678;2023-10-13T00:10:19;14.15;;;6.28;;
61642;SDS011;47551;52.506;4.678;2023-10-13T00:10:39;12.17;;;6.20;;
61642;SDS011;47551;52.506;4.678;2023-10-13T00:11:00;11.15;;;6.28;;
61642;SDS011;47551;52.506;4.678;2023-10-13T00:11:20;11.53;;;6.43;;
61642;SDS011;47551;52.506;4.678;2023-10-13T00:11:42;11.82;;;6.40;;
61642;SDS011;47551;52.506;4.678;2023-10-13T00:12:05;11.48;;;6.10;;
61642;SDS011;47551;52.506;4.678;2023-10-13T00:12:34;10.40;;;6.10;;
61642;SDS011;47551;52.506;4.678;2023-10-13T00:12:58;9.85;;;6.15;;
61642;SDS011;47551;52.506;4.678;2023-10-13T00:13:35;12.05;;;6.00;;
61642;SDS011;47551;52.506;4.678;2023-10-13T00:14:13;10.98;;;6.30;;
61642;SDS011;47551;52.506;4.678;2023-10-13T00:14:36;11.85;;;6.60;;
61642;SDS011;47551;52.506;4.678;2023-10-13T00:14:59;10.98;;;5.85;;
61642;SDS011;47551;52.506;4.678;2023-10-13T00:15:23;10.95;;;5.90;;
61642;SDS011;47551;52.506;4.678;2023-10-13T00:15:54;11.02;;;6.07;;
61642;SDS011;47551;52.506;4.678;2023-10-13T00:16:17;11.95;;;6.57;;
61642;SDS011;47551;52.506;4.678;2023-10-13T00:16:41;11.63;;;6.13;;
61642;SDS011;47551;52.506;4.678;2023-10-13T00:17:03;13.27;;;6.38;;
61642;SDS011;47551;52.506;4.678;2023-10-13T00:17:35;11.25;;;6.45;;
61642;SDS011;47551;52.506;4.678;2023-10-13T00:17:58;11.13;;;6.25;;
61642;SDS011;47551;52.506;4.678;2023-10-13T00:18:19;11.07;;;5.83;;
61642;SDS011;47551;52.506;4.678;2023-10-13T00:18:39;12.38;;;6.25;;
61642;SDS011;47551;52.506;4.678;2023-10-13T00:19:03;11.13;;;5.95;;
61642;SDS011;47551;52.506;4.678;2023-10-13T00:19:27;8.57;;;5.53;;
61642;SDS011;47551;52.506;4.678;2023-10-13T00:19:47;8.85;;;5.97;;
61642;SDS011;47551;52.506;4.678;2023-10-13T00:20:12;11.73;;;6.20;;
61642;SDS011;47551;52.506;4.678;2023-10-13T00:20:48;9.73;;;5.72;;
61642;SDS011;47551;52.506;4.678;2023-10-13T00:21:10;10.20;;;5.70;;
61642;SDS011;47551;52.506;4.678;2023-10-13T00:21:33;10.52;;;5.30;;
61642;SDS011;47551;52.506;4.678;2023-10-13T00:21:55;10.25;;;5.07;;
61642;SDS011;47551;52.506;4.678;2023-10-13T00:22:28;8.82;;;5.80;;
61642;SDS011;47551;52.506;4.678;2023-10-13T00:22:51;10.07;;;6.10;;
61642;SDS011;47551;52.506;4.678;2023-10-13T00:23:11;11.23;;;6.20;;
61642;SDS011;47551;52.506;4.678;2023-10-13T00:23:32;12.35;;;6.00;;
61642;SDS011;47551;52.506;4.678;2023-10-13T00:23:52;12.27;;;5.97;;
61642;SDS011;47551;52.506;4.678;2023-10-13T00:24:16;13.95;;;6.30;;
61642;SDS011;47551;52.506;4.678;2023-10-13T00:24:36;13.97;;;7.17;;
61642;SDS011;47551;52.506;4.678;2023-10-13T00:25:02;10.70;;;6.93;;
61642;SDS011;47551;52.506;4.678;2023-10-13T00:25:27;11.80;;;7.05;;
61642;SDS011;47551;52.506;4.678;2023-10-13T00:25:48;11.13;;;7.40;;
61642;SDS011;47551;52.506;4.678;2023-10-13T00:26:16;11.70;;;7.18;;
61642;SDS011;47551;52.506;4.678;2023-10-13T00:26:38;11.80;;;7.30;;
61642;SDS011;47551;52.506;4.678;2023-10-13T00:27:00;11.30;;;6.88;;
61642;SDS011;47551;52.506;4.678;2023-10-13T00:27:24;12.57;;;6.80;;
61642;SDS011;47551;52.506;4.678;2023-10-13T00:27:49;13.32;;;6.95;;
61642;SDS011;47551;52.506;4.678;2023-10-13T00:28:12;13.20;;;6.97;;
61642;SDS011;47551;52.506;4.678;2023-10-13T00:28:42;12.10;;;6.85;;
61642;SDS011;47551;52.506;4.678;2023-10-13T00:29:13;12.13;;;7.03;;
61642;SDS011;47551;52.506;4.678;2023-10-13T00:29:33;11.20;;;7.20;;
61642;SDS011;47551;52.506;4.678;2023-10-13T00:29:58;10.13;;;6.90;;
61642;SDS011;47551;52.506;4.678;2023-10-13T00:30:36;11.90;;;7.05;;
61642;SDS011;47551;52.506;4.678;2023-10-13T00:30:57;10.87;;;6.30;;
61642;SDS011;47551;52.506;4.678;2023-10-13T00:31:20;11.13;;;7.00;;
61642;SDS011;47551;52.506;4.678;2023-10-13T00:31:42;11.10;;;7.00;;
61642;SDS011;47551;52.506;4.678;2023-10-13T00:32:08;9.82;;;6.50;;
61642;SDS011;47551;52.506;4.678;2023-10-13T00:32:32;11.27;;;6.32;;
61642;SDS011;47551;52.506;4.678;2023-10-13T00:32:52;10.87;;;6.73;;
61642;SDS011;47551;52.506;4.678;2023-10-13T00:33:16;12.05;;;5.93;;
61642;SDS011;47551;52.506;4.678;2023-10-13T00:33:40;11.15;;;5.85;;
61642;SDS011;47551;52.506;4.678;2023-10-13T00:34:06;8.65;;;5.43;;
61642;SDS011;47551;52.506;4.678;2023-10-13T00:34:42;9.85;;;5.65;;
61642;SDS011;47551;52.506;4.678;2023-10-13T00:35:02;10.23;;;5.75;;
61642;SDS011;47551;52.506;4.678;2023-10-13T00:35:28;10.07;;;6.22;;
61642;SDS011;47551;52.506;4.678;2023-10-13T00:35:49;9.23;;;5.95;;
61642;SDS011;47551;52.506;4.678;2023-10-13T00:36:16;9.07;;;5.93;;
61642;SDS011;47551;52.506;4.678;2023-10-13T00:36:40;10.10;;;6.35;;
61642;SDS011;47551;52.506;4.678;2023-10-13T00:37:14;9.43;;;5.50;;
61642;SDS011;47551;52.506;4.678;2023-10-13T00:37:47;10.35;;;6.00;;
61642;SDS011;47551;52.506;4.678;2023-10-13T00:38:08;10.93;;;6.18;;
61642;SDS011;47551;52.506;4.678;2023-10-13T00:38:36;8.68;;;5.68;;
61642;SDS011;47551;52.506;4.678;2023-10-13T00:38:57;9.52;;;5.95;;
61642;SDS011;47551;52.506;4.678;2023-10-13T00:39:17;9.97;;;6.60;;
61642;SDS011;47551;52.506;4.678;2023-10-13T00:39:40;9.47;;;6.80;;
61642;SDS011;47551;52.506;4.678;2023-10-13T00:40:04;10.45;;;7.15;;
61642;SDS011;47551;52.506;4.678;2023-10-13T00:40:28;9.77;;;6.82;;
61642;SDS011;47551;52.506;4.678;2023-10-13T00:40:51;10.32;;;6.90;;
61642;SDS011;47551;52.506;4.678;2023-10-13T00:41:11;13.20;;;6.80;;
61642;SDS011;47551;52.506;4.678;2023-10-13T00:41:36;11.25;;;7.10;;
61642;SDS011;47551;52.506;4.678;2023-10-13T00:42:12;9.82;;;6.90;;
61642;SDS011;47551;52.506;4.678;2023-10-13T00:42:39;11.75;;;6.95;;
61642;SDS011;47551;52.506;4.678;2023-10-13T00:43:11;9.48;;;6.70;;
61642;SDS011;47551;52.506;4.678;2023-10-13T00:43:47;12.57;;;6.88;;
61642;SDS011;47551;52.506;4.678;2023-10-13T00:44:26;10.88;;;6.70;;
61642;SDS011;47551;52.506;4.678;2023-10-13T00:44:58;10.60;;;6.65;;
61642;SDS011;47551;52.506;4.678;2023-10-13T00:45:21;10.88;;;6.65;;
61642;SDS011;47551;52.506;4.678;2023-10-13T00:45:42;9.75;;;6.60;;
61642;SDS011;47551;52.506;4.678;2023-10-13T00:46:03;10.23;;;7.10;;
61642;SDS011;47551;52.506;4.678;2023-10-13T00:46:24;10.45;;;7.20;;
61642;SDS011;47551;52.506;4.678;2023-10-13T00:46:53;9.23;;;6.78;;
61642;SDS011;47551;52.506;4.678;2023-10-13T00:47:16;10.98;;;6.90;;
61642;SDS011;47551;52.506;4.678;2023-10-13T00:47:56;11.82;;;6.70;;
61642;SDS011;47551;52.506;4.678;2023-10-13T00:48:24;9.52;;;6.20;;
61642;SDS011;47551;52.506;4.678;2023-10-13T00:48:54;9.60;;;6.25;;
61642;SDS011;47551;52.506;4.678;2023-10-13T00:49:14;10.40;;;6.50;;
61642;SDS011;47551;52.506;4.678;2023-10-13T00:49:36;10.85;;;6.50;;
61642;SDS011;47551;52.506;4.678;2023-10-13T00:49:59;9.65;;;6.25;;
61642;SDS011;47551;52.506;4.678;2023-10-13T00:50:19;8.87;;;6.10;;
61642;SDS011;47551;52.506;4.678;2023-10-13T00:50:43;12.20;;;6.63;;
61642;SDS011;47551;52.506;4.678;2023-10-13T00:51:11;10.00;;;6.18;;
61642;SDS011;47551;52.506;4.678;2023-10-13T00:51:42;11.98;;;6.47;;
61642;SDS011;47551;52.506;4.678;2023-10-13T00:52:07;10.77;;;6.35;;
61642;SDS011;47551;52.506;4.678;2023-10-13T00:52:30;10.25;;;6.40;;
61642;SDS011;47551;52.506;4.678;2023-10-13T00:52:51;12.30;;;7.20;;
61642;SDS011;47551;52.506;4.678;2023-10-13T00:53:11;11.87;;;6.90;;
61642;SDS011;47551;52.506;4.678;2023-10-13T00:53:32;10.67;;;6.40;;
61642;SDS011;47551;52.506;4.678;2023-10-13T00:54:03;11.27;;;6.43;;
61642;SDS011;47551;52.506;4.678;2023-10-13T00:54:27;11.20;;;7.00;;
61642;SDS011;47551;52.506;4.678;2023-10-13T00:54:48;10.50;;;7.20;;
61642;SDS011;47551;52.506;4.678;2023-10-13T00:55:09;11.75;;;7.40;;
61642;SDS011;47551;52.506;4.678;2023-10-13T00:55:29;12.45;;;7.60;;
61642;SDS011;47551;52.506;4.678;2023-10-13T00:55:56;10.77;;;7.38;;
61642;SDS011;47551;52.506;4.678;2023-10-13T00:56:16;11.80;;;7.45;;
61642;SDS011;47551;52.506;4.678;2023-10-13T00:56:46;10.85;;;7.45;;
61642;SDS011;47551;52.506;4.678;2023-10-13T00:57:09;11.13;;;7.65;;
61642;SDS011;47551;52.506;4.678;2023-10-13T00:57:46;11.88;;;7.75;;
61642;SDS011;47551;52.506;4.678;2023-10-13T00:58:07;10.65;;;7.57;;
61642;SDS011;47551;52.506;4.678;2023-10-13T00:58:32;11.13;;;6.93;;
61642;SDS011;47551;52.506;4.678;2023-10-13T00:58:54;10.82;;;7.22;;
61642;SDS011;47551;52.506;4.678;2023-10-13T00:59:22;12.43;;;7.82;;
61642;SDS011;47551;52.506;4.678;2023-10-13T00:59:45;12.20;;;7.88;;
61642;SDS011;47551;52.506;4.678;2023-10-13T01:00:07;11.18;;;7.53;;
61642;SDS011;47551;52.506;4.678;2023-10-13T01:00:45;11.38;;;7.50;;
61642;SDS011;47551;52.506;4.678;2023-10-13T01:01:08;10.82;;;7.97;;
61642;SDS011;47551;52.506;4.678;2023-10-13T01:01:37;13.25;;;7.97;;
61642;SDS011;47551;52.506;4.678;2023-10-13T01:02:10;12.05;;;7.78;;
61642;SDS011;47551;52.506;4.678;2023-10-13T01:02:49;12.60;;;8.13;;
61642;SDS011;47551;52.506;4.678;2023-10-13T01:03:15;12.57;;;7.63;;
61642;SDS011;47551;52.506;4.678;2023-10-13T01:03:36;11.60;;;7.47;;
61642;SDS011;47551;52.506;4.678;2023-10-13T01:03:58;10.75;;;7.63;;
61642;SDS011;47551;52.506;4.678;2023-10-13T01:04:23;11.65;;;7.57;;
61642;SDS011;47551;52.506;4.678;2023-10-13T01:04:47;11.50;;;7.57;;
61642;SDS011;47551;52.506;4.678;2023-10-13T01:05:08;10.50;;;7.50;;
61642;SDS011;47551;52.506;4.678;2023-10-13T01:05:32;11.73;;;7.80;;
61642;SDS011;47551;52.506;4.678;2023-10-13T01:05:54;11.70;;;7.55;;
61642;SDS011;47551;52.506;4.678;2023-10-13T01:06:15;11.85;;;8.05;;
61642;SDS011;47551;52.506;4.678;2023-10-13T01:06:36;10.50;;;7.55;;
61642;SDS011;47551;52.506;4.678;2023-10-13T01:06:58;11.30;;;7.32;;
61642;SDS011;47551;52.506;4.678;2023-10-13T01:07:19;12.18;;;7.40;;
61642;SDS011;47551;52.506;4.678;2023-10-13T01:07:45;11.18;;;6.97;;
61642;SDS011;47551;52.506;4.678;2023-10-13T01:08:06;11.63;;;7.05;;
61642;SDS011;47551;52.506;4.678;2023-10-13T01:08:31;11.27;;;6.93;;
61642;SDS011;47551;52.506;4.678;2023-10-13T01:08:58;13.07;;;7.00;;
61642;SDS011;47551;52.506;4.678;2023-10-13T01:09:19;10.07;;;6.88;;
61642;SDS011;47551;52.506;4.678;2023-10-13T01:09:43;10.15;;;7.05;;
61642;SDS011;47551;52.506;4.678;2023-10-13T01:10:03;12.13;;;7.13;;
61642;SDS011;47551;52.506;4.678;2023-10-13T01:10:24;12.23;;;7.50;;
61642;SDS011;47551;52.506;4.678;2023-10-13T01:10:46;12.70;;;7.88;;
61642;SDS011;47551;52.506;4.678;2023-10-13T01:11:06;11.57;;;7.60;;
61642;SDS011;47551;52.506;4.678;2023-10-13T01:11:27;11.52;;;7.10;;
61642;SDS011;47551;52.506;4.678;2023-10-13T01:11:49;12.48;;;7.47;;
61642;SDS011;47551;52.506;4.678;2023-10-13T01:12:14;13.18;;;7.85;;
61642;SDS011;47551;52.506;4.678;2023-10-13T01:12:34;12.13;;;7.53;;
61642;SDS011;47551;52.506;4.678;2023-10-13T01:12:55;10.80;;;7.15;;
61642;SDS011;47551;52.506;4.678;2023-10-13T01:13:15;11.70;;;7.40;;
61642;SDS011;47551;52.506;4.678;2023-10-13T01:13:37;10.68;;;7.63;;
61642;SDS011;47551;52.506;4.678;2023-10-13T01:13:57;12.17;;;7.40;;
61642;SDS011;47551;52.506;4.678;2023-10-13T01:14:20;11.73;;;7.65;;
61642;SDS011;47551;52.506;4.678;2023-10-13T01:14:41;10.02;;;7.22;;
61642;SDS011;47551;52.506;4.678;2023-10-13T01:15:01;11.80;;;6.80;;
61642;SDS011;47551;52.506;4.678;2023-10-13T01:15:28;10.98;;;7.05;;
61642;SDS011;47551;52.506;4.678;2023-10-13T01:15:53;10.90;;;7.25;;
61642;SDS011;47551;52.506;4.678;2023-10-13T01:16:13;10.63;;;7.10;;
61642;SDS011;47551;52.506;4.678;2023-10-13T01:16:33;9.63;;;6.23;;
61642;SDS011;47551;52.506;4.678;2023-10-13T01:16:55;9.85;;;5.90;;
61642;SDS011;47551;52.506;4.678;2023-10-13T01:17:15;10.13;;;5.90;;
61642;SDS011;47551;52.506;4.678;2023-10-13T01:17:35;10.55;;;5.78;;
61642;SDS011;47551;52.506;4.678;2023-10-13T01:18:11;9.43;;;5.78;;
61642;SDS011;47551;52.506;4.678;2023-10-13T01:18:36;10.50;;;5.93;;
61642;SDS011;47551;52.506;4.678;2023-10-13T01:19:07;9.35;;;6.18;;
61642;SDS011;47551;52.506;4.678;2023-10-13T01:19:27;8.98;;;6.22;;
61642;SDS011;47551;52.506;4.678;2023-10-13T01:19:47;9.67;;;6.53;;
61642;SDS011;47551;52.506;4.678;2023-10-13T01:20:09;10.68;;;6.25;;
61642;SDS011;47551;52.506;4.678;2023-10-13T01:20:31;10.52;;;6.78;;
61642;SDS011;47551;52.506;4.678;2023-10-13T01:20:53;11.15;;;6.75;;
61642;SDS011;47551;52.506;4.678;2023-10-13T01:21:14;12.47;;;7.13;;
61642;SDS011;47551;52.506;4.678;2023-10-13T01:21:36;12.07;;;7.03;;
61642;SDS011;47551;52.506;4.678;2023-10-13T01:21:56;11.07;;;6.87;;
61642;SDS011;47551;52.506;4.678;2023-10-13T01:22:22;11.93;;;6.90;;
61642;SDS011;47551;52.506;4.678;2023-10-13T01:22:43;12.52;;;6.90;;
61642;SDS011;47551;52.506;4.678;2023-10-13T01:23:04;10.33;;;6.70;;
61642;SDS011;47551;52.506;4.678;2023-10-13T01:23:26;10.32;;;6.35;;
61642;SDS011;47551;52.506;4.678;2023-10-13T01:23:48;10.40;;;5.93;;
61642;SDS011;47551;52.506;4.678;2023-10-13T01:24:10;11.35;;;5.95;;
61642;SDS011;47551;52.506;4.678;2023-10-13T01:24:36;9.63;;;6.15;;
61642;SDS011;47551;52.506;4.678;2023-10-13T01:24:56;11.10;;;5.93;;
61642;SDS011;47551;52.506;4.678;2023-10-13T01:25:25;9.95;;;6.25;;
61642;SDS011;47551;52.506;4.678;2023-10-13T01:25:48;11.75;;;6.50;;
61642;SDS011;47551;52.506;4.678;2023-10-13T01:26:13;11.35;;;6.20;;
61642;SDS011;47551;52.506;4.678;2023-10-13T01:26:44;12.38;;;6.03;;
61642;SDS011;47551;52.506;4.678;2023-10-13T01:27:04;10.07;;;5.70;;
61642;SDS011;47551;52.506;4.678;2023-10-13T01:27:37;10.55;;;5.95;;
61642;SDS011;47551;52.506;4.678;2023-10-13T01:28:01;10.05;;;6.07;;
61642;SDS011;47551;52.506;4.678;2023-10-13T01:28:21;10.50;;;6.47;;
61642;SDS011;47551;52.506;4.678;2023-10-13T01:28:42;11.02;;;6.30;;
61642;SDS011;47551;52.506;4.678;2023-10-13T01:29:06;10.77;;;6.45;;
61642;SDS011;47551;52.506;4.678;2023-10-13T01:29:33;12.35;;;5.60;;
61642;SDS011;47551;52.506;4.678;2023-10-13T01:29:54;11.18;;;6.03;;
61642;SDS011;47551;52.506;4.678;2023-10-13T01:30:25;10.57;;;5.75;;
61642;SDS011;47551;52.506;4.678;2023-10-13T01:30:46;11.27;;;6.13;;
61642;SDS011;47551;52.506;4.678;2023-10-13T01:31:12;9.70;;;5.65;;
61642;SDS011;47551;52.506;4.678;2023-10-13T01:31:49;10.18;;;5.65;;
61642;SDS011;47551;52.506;4.678;2023-10-13T01:32:09;11.20;;;5.90;;
61642;SDS011;47551;52.506;4.678;2023-10-13T01:32:32;10.38;;;5.65;;
61642;SDS011;47551;52.506;4.678;2023-10-13T01:32:53;10.82;;;5.47;;
61642;SDS011;47551;52.506;4.678;2023-10-13T01:33:20;13.57;;;5.70;;
61642;SDS011;47551;52.506;4.678;2023-10-13T01:33:46;8.80;;;5.40;;
61642;SDS011;47551;52.506;4.678;2023-10-13T01:34:07;9.27;;;5.00;;
61642;SDS011;47551;52.506;4.678;2023-10-13T01:34:28;10.82;;;4.93;;
61642;SDS011;47551;52.506;4.678;2023-10-13T01:34:48;9.03;;;4.77;;
61642;SDS011;47551;52.506;4.678;2023-10-13T01:35:09;8.73;;;4.60;;
61642;SDS011;47551;52.506;4.678;2023-10-13T01:35:50;11.57;;;5.55;;
61642;SDS011;47551;52.506;4.678;2023-10-13T01:36:13;12.95;;;5.60;;
61642;SDS011;47551;52.506;4.678;2023-10-13T01:36:33;10.20;;;5.20;;
61642;SDS011;47551;52.506;4.678;2023-10-13T01:36:56;11.23;;;5.40;;
61642;SDS011;47551;52.506;4.678;2023-10-13T01:37:16;11.80;;;5.20;;
61642;SDS011;47551;52.506;4.678;2023-10-13T01:37:36;12.17;;;5.10;;
61642;SDS011;47551;52.506;4.678;2023-10-13T01:37:56;11.17;;;5.40;;
61642;SDS011;47551;52.506;4.678;2023-10-13T01:38:16;11.47;;;5.50;;
61642;SDS011;47551;52.506;4.678;2023-10-13T01:38:37;11.55;;;5.68;;
61642;SDS011;47551;52.506;4.678;2023-10-13T01:38:58;12.32;;;5.45;;
61642;SDS011;47551;52.506;4.678;2023-10-13T01:39:22;10.23;;;5.65;;
61642;SDS011;47551;52.506;4.678;2023-10-13T01:39:46;11.88;;;5.70;;
61642;SDS011;47551;52.506;4.678;2023-10-13T01:40:12;11.60;;;5.32;;
61642;SDS011;47551;52.506;4.678;2023-10-13T01:40:32;12.75;;;5.53;;
61642;SDS011;47551;52.506;4.678;2023-10-13T01:40:54;10.10;;;5.30;;
61642;SDS011;47551;52.506;4.678;2023-10-13T01:41:17;10.48;;;5.40;;
61642;SDS011;47551;52.506;4.678;2023-10-13T01:41:37;9.98;;;5.30;;
61642;SDS011;47551;52.506;4.678;2023-10-13T01:41:59;10.48;;;5.25;;
61642;SDS011;47551;52.506;4.678;2023-10-13T01:42:20;10.65;;;5.30;;
61642;SDS011;47551;52.506;4.678;2023-10-13T01:42:41;12.35;;;5.50;;
61642;SDS011;47551;52.506;4.678;2023-10-13T01:43:02;12.87;;;5.90;;
61642;SDS011;47551;52.506;4.678;2023-10-13T01:43:24;9.95;;;5.38;;
61642;SDS011;47551;52.506;4.678;2023-10-13T01:43:44;9.63;;;5.23;;
61642;SDS011;47551;52.506;4.678;2023-10-13T01:44:08;9.40;;;5.17;;
61642;SDS011;47551;52.506;4.678;2023-10-13T01:44:31;11.02;;;5.32;;
61642;SDS011;47551;52.506;4.678;2023-10-13T01:44:52;10.77;;;5.35;;
61642;SDS011;47551;52.506;4.678;2023-10-13T01:45:18;11.35;;;5.10;;
61642;SDS011;47551;52.506;4.678;2023-10-13T01:45:40;11.90;;;4.95;;
61642;SDS011;47551;52.506;4.678;2023-10-13T01:46:07;10.90;;;4.95;;
61642;SDS011;47551;52.506;4.678;2023-10-13T01:46:29;9.73;;;5.13;;
61642;SDS011;47551;52.506;4.678;2023-10-13T01:46:49;10.40;;;4.80;;
61642;SDS011;47551;52.506;4.678;2023-10-13T01:47:11;10.18;;;4.80;;
61642;SDS011;47551;52.506;4.678;2023-10-13T01:47:32;8.77;;;4.07;;
61642;SDS011;47551;52.506;4.678;2023-10-13T01:47:56;10.68;;;4.20;;
61642;SDS011;47551;52.506;4.678;2023-10-13T01:48:16;12.03;;;4.10;;
61642;SDS011;47551;52.506;4.678;2023-10-13T01:48:38;8.73;;;3.60;;
61642;SDS011;47551;52.506;4.678;2023-10-13T01:49:03;10.32;;;4.03;;
61642;SDS011;47551;52.506;4.678;2023-10-13T01:49:23;11.17;;;4.20;;
61642;SDS011;47551;52.506;4.678;2023-10-13T01:49:44;9.55;;;4.10;;
61642;SDS011;47551;52.506;4.678;2023-10-13T01:50:10;9.43;;;4.10;;
61642;SDS011;47551;52.506;4.678;2023-10-13T01:50:39;11.45;;;4.25;;
61642;SDS011;47551;52.506;4.678;2023-10-13T01:50:59;12.00;;;4.40;;
61642;SDS011;47551;52.506;4.678;2023-10-13T01:51:25;10.57;;;4.57;;
61642;SDS011;47551;52.506;4.678;2023-10-13T01:51:47;9.88;;;4.53;;
61642;SDS011;47551;52.506;4.678;2023-10-13T01:52:10;11.30;;;4.70;;
61642;SDS011;47551;52.506;4.678;2023-10-13T01:52:35;12.40;;;5.00;;
61642;SDS011;47551;52.506;4.678;2023-10-13T01:52:56;12.30;;;4.43;;
61642;SDS011;47551;52.506;4.678;2023-10-13T01:53:31;12.43;;;4.55;;
61642;SDS011;47551;52.506;4.678;2023-10-13T01:53:52;13.83;;;4.40;;
61642;SDS011;47551;52.506;4.678;2023-10-13T01:54:16;12.32;;;4.50;;
61642;SDS011;47551;52.506;4.678;2023-10-13T01:54:36;12.20;;;4.53;;
61642;SDS011;47551;52.506;4.678;2023-10-13T01:55:00;10.52;;;4.10;;
61642;SDS011;47551;52.506;4.678;2023-10-13T01:55:24;11.85;;;4.35;;
61642;SDS011;47551;52.506;4.678;2023-10-13T01:55:45;9.77;;;3.97;;
61642;SDS011;47551;52.506;4.678;2023-10-13T01:56:05;11.87;;;4.00;;
61642;SDS011;47551;52.506;4.678;2023-10-13T01:56:30;10.65;;;4.07;;
61642;SDS011;47551;52.506;4.678;2023-10-13T01:56:51;9.88;;;4.30;;
61642;SDS011;47551;52.506;4.678;2023-10-13T01:57:11;11.03;;;3.57;;
61642;SDS011;47551;52.506;4.678;2023-10-13T01:57:37;11.90;;;3.33;;
61642;SDS011;47551;52.506;4.678;2023-10-13T01:57:57;10.27;;;3.40;;
61642;SDS011;47551;52.506;4.678;2023-10-13T01:58:17;8.75;;;3.25;;
61642;SDS011;47551;52.506;4.678;2023-10-13T01:58:42;9.82;;;3.22;;
61642;SDS011;47551;52.506;4.678;2023-10-13T01:59:02;9.63;;;3.10;;
61642;SDS011;47551;52.506;4.678;2023-10-13T01:59:25;11.68;;;3.17;;
61642;SDS011;47551;52.506;4.678;2023-10-13T01:59:47;14.02;;;3.47;;
61642;SDS011;47551;52.506;4.678;2023-10-13T02:00:09;14.60;;;3.58;;
61642;SDS011;47551;52.506;4.678;2023-10-13T02:00:42;10.98;;;3.22;;
61642;SDS011;47551;52.506;4.678;2023-10-13T02:01:03;9.90;;;3.17;;
61642;SDS011;47551;52.506;4.678;2023-10-13T02:01:33;11.00;;;2.97;;
61642;SDS011;47551;52.506;4.678;2023-10-13T02:01:53;9.82;;;2.90;;
61642;SDS011;47551;52.506;4.678;2023-10-13T02:02:17;10.85;;;3.17;;
61642;SDS011;47551;52.506;4.678;2023-10-13T02:02:50;9.95;;;3.00;;
61642;SDS011;47551;52.506;4.678;2023-10-13T02:03:11;9.83;;;2.70;;
61642;SDS011;47551;52.506;4.678;2023-10-13T02:03:35;9.80;;;2.67;;
61642;SDS011;47551;52.506;4.678;2023-10-13T02:03:56;9.75;;;3.10;;
61642;SDS011;47551;52.506;4.678;2023-10-13T02:04:29;9.75;;;2.70;;
61642;SDS011;47551;52.506;4.678;2023-10-13T02:04:54;10.43;;;3.05;;
61642;SDS011;47551;52.506;4.678;2023-10-13T02:05:20;9.40;;;2.97;;
61642;SDS011;47551;52.506;4.678;2023-10-13T02:05:44;8.85;;;2.83;;
61642;SDS011;47551;52.506;4.678;2023-10-13T02:06:07;10.55;;;2.95;;
61642;SDS011;47551;52.506;4.678;2023-10-13T02:06:30;9.52;;;3.08;;
61642;SDS011;47551;52.506;4.678;2023-10-13T02:06:52;10.32;;;2.92;;
61642;SDS011;47551;52.506;4.678;2023-10-13T02:07:12;11.13;;;2.93;;
61642;SDS011;47551;52.506;4.678;2023-10-13T02:07:35;8.90;;;2.80;;
61642;SDS011;47551;52.506;4.678;2023-10-13T02:07:58;9.80;;;2.90;;
61642;SDS011;47551;52.506;4.678;2023-10-13T02:08:27;9.27;;;2.70;;
61642;SDS011;47551;52.506;4.678;2023-10-13T02:08:47;8.77;;;2.40;;
61642;SDS011;47551;52.506;4.678;2023-10-13T02:09:20;10.10;;;3.03;;
61642;SDS011;47551;52.506;4.678;2023-10-13T02:09:57;10.02;;;2.95;;
61642;SDS011;47551;52.506;4.678;2023-10-13T02:10:17;9.27;;;2.80;;
61642;SDS011;47551;52.506;4.678;2023-10-13T02:10:44;10.07;;;2.72;;
61642;SDS011;47551;52.506;4.678;2023-10-13T02:11:07;11.77;;;2.85;;
61642;SDS011;47551;52.506;4.678;2023-10-13T02:11:30;14.77;;;3.03;;
61642;SDS011;47551;52.506;4.678;2023-10-13T02:11:51;11.57;;;2.87;;
61642;SDS011;47551;52.506;4.678;2023-10-13T02:12:14;10.20;;;2.88;;
61642;SDS011;47551;52.506;4.678;2023-10-13T02:12:35;8.38;;;2.78;;
61642;SDS011;47551;52.506;4.678;2023-10-13T02:13:04;12.30;;;3.00;;
61642;SDS011;47551;52.506;4.678;2023-10-13T02:13:25;11.30;;;2.70;;
61642;SDS011;47551;52.506;4.678;2023-10-13T02:13:45;9.13;;;2.50;;
61642;SDS011;47551;52.506;4.678;2023-10-13T02:14:10;8.90;;;2.40;;
61642;SDS011;47551;52.506;4.678;2023-10-13T02:14:41;10.23;;;2.65;;
61642;SDS011;47551;52.506;4.678;2023-10-13T02:15:02;10.20;;;2.77;;
61642;SDS011;47551;52.506;4.678;2023-10-13T02:15:24;10.07;;;2.50;;
61642;SDS011;47551;52.506;4.678;2023-10-13T02:15:46;9.60;;;2.45;;
61642;SDS011;47551;52.506;4.678;2023-10-13T02:16:08;7.88;;;2.20;;
61642;SDS011;47551;52.506;4.678;2023-10-13T02:16:28;9.65;;;2.25;;
61642;SDS011;47551;52.506;4.678;2023-10-13T02:16:51;12.27;;;2.50;;
61642;SDS011;47551;52.506;4.678;2023-10-13T02:17:15;9.52;;;2.40;;
61642;SDS011;47551;52.506;4.678;2023-10-13T02:17:36;9.02;;;2.30;;
61642;SDS011;47551;52.506;4.678;2023-10-13T02:18:02;7.53;;;2.28;;
61642;SDS011;47551;52.506;4.678;2023-10-13T02:18:23;7.10;;;2.20;;
61642;SDS011;47551;52.506;4.678;2023-10-13T02:18:46;9.48;;;2.50;;
61642;SDS011;47551;52.506;4.678;2023-10-13T02:19:13;12.60;;;2.70;;
61642;SDS011;47551;52.506;4.678;2023-10-13T02:19:35;8.32;;;2.40;;
61642;SDS011;47551;52.506;4.678;2023-10-13T02:19:59;6.95;;;2.22;;
61642;SDS011;47551;52.506;4.678;2023-10-13T02:20:27;9.15;;;2.47;;
61642;SDS011;47551;52.506;4.678;2023-10-13T02:21:02;8.73;;;2.40;;
61642;SDS011;47551;52.506;4.678;2023-10-13T02:21:24;8.35;;;2.70;;
61642;SDS011;47551;52.506;4.678;2023-10-13T02:21:51;8.90;;;2.55;;
61642;SDS011;47551;52.506;4.678;2023-10-13T02:22:18;9.75;;;2.50;;
61642;SDS011;47551;52.506;4.678;2023-10-13T02:22:51;9.93;;;2.97;;
61642;SDS011;47551;52.506;4.678;2023-10-13T02:23:12;9.53;;;2.90;;